createdAt,value
2023-03-30T00:00:48.957Z,5.93
2023-03-30T00:03:19.545Z,6.50
2023-03-30T00:05:50.029Z,6.53
2023-03-30T00:08:18.443Z,9.35
2023-03-30T00:10:46.207Z,9.75
2023-03-30T00:13:14.605Z,5.53
2023-03-30T00:15:42.302Z,7.25
2023-03-30T00:18:10.689Z,5.22
2023-03-30T00:20:42.909Z,6.03
2023-03-30T00:23:12.176Z,5.63
2023-03-30T00:25:39.891Z,14.13
2023-03-30T00:28:07.821Z,4.85
2023-03-30T00:30:37.050Z,5.53
2023-03-30T00:33:05.300Z,8.38
2023-03-30T00:35:33.110Z,7.97
2023-03-30T00:38:03.148Z,6.32
2023-03-30T00:40:33.626Z,7.10
2023-03-30T00:43:01.688Z,8.57
2023-03-30T00:45:30.820Z,8.73
2023-03-30T00:48:01.861Z,8.13
2023-03-30T00:50:35.621Z,8.40
2023-03-30T00:53:08.408Z,8.18
2023-03-30T00:55:38.992Z,6.72
2023-03-30T00:58:09.860Z,5.25
2023-03-30T01:00:39.696Z,3.40
2023-03-30T01:03:13.256Z,5.07
2023-03-30T01:05:42.440Z,8.07
2023-03-30T01:08:14.058Z,8.52
2023-03-30T01:10:43.799Z,4.53
2023-03-30T01:13:11.988Z,6.20
2023-03-30T01:15:42.785Z,5.22
2023-03-30T01:18:19.702Z,9.75
2023-03-30T01:21:15.972Z,5.20
2023-03-30T01:23:58.639Z,5.40
2023-03-30T01:26:45.338Z,9.20
2023-03-30T01:29:18.672Z,8.98
2023-03-30T01:32:02.384Z,5.53
2023-03-30T01:34:43.806Z,10.02
2023-03-30T01:37:38.810Z,6.78
2023-03-30T01:40:11.320Z,7.33
2023-03-30T01:42:42.109Z,9.70
2023-03-30T01:45:14.435Z,8.45
2023-03-30T01:47:46.458Z,8.57
2023-03-30T01:50:16.530Z,6.80
2023-03-30T01:52:53.811Z,3.47
2023-03-30T01:55:26.005Z,5.15
2023-03-30T01:57:58.633Z,4.65
2023-03-30T02:00:27.731Z,12.48
2023-03-30T02:02:58.453Z,7.43
2023-03-30T02:05:28.061Z,7.03
2023-03-30T02:07:57.330Z,6.70
2023-03-30T02:10:28.977Z,4.90
2023-03-30T02:12:57.824Z,5.95
2023-03-30T02:15:26.423Z,8.80
2023-03-30T02:17:54.483Z,6.93
2023-03-30T02:20:22.913Z,7.10
2023-03-30T02:22:51.015Z,6.65
2023-03-30T02:25:19.223Z,8.35
2023-03-30T02:27:48.319Z,5.88
2023-03-30T02:30:16.857Z,4.97
2023-03-30T02:32:47.385Z,5.65
2023-03-30T02:35:22.682Z,5.17
2023-03-30T02:38:04.508Z,5.50
2023-03-30T02:40:38.395Z,7.28
2023-03-30T02:43:18.022Z,9.23
2023-03-30T02:45:52.649Z,6.70
2023-03-30T02:48:30.754Z,9.20
2023-03-30T02:51:08.780Z,8.98
2023-03-30T02:53:41.858Z,7.53
2023-03-30T02:56:14.860Z,6.72
2023-03-30T02:58:58.690Z,10.90
2023-03-30T03:01:29.630Z,6.22
2023-03-30T03:03:59.190Z,10.13
2023-03-30T03:06:28.529Z,6.30
2023-03-30T03:08:56.777Z,13.70
2023-03-30T03:11:24.863Z,8.63
2023-03-30T03:13:52.815Z,5.75
2023-03-30T03:16:22.145Z,7.30
2023-03-30T03:18:50.485Z,10.88
2023-03-30T03:21:18.534Z,6.53
2023-03-30T03:23:48.501Z,5.43
2023-03-30T03:26:16.393Z,7.80
2023-03-30T03:28:44.893Z,8.23
2023-03-30T03:31:13.428Z,9.82
2023-03-30T03:33:42.582Z,11.27
2023-03-30T03:36:12.219Z,6.43
2023-03-30T03:38:40.714Z,8.57
2023-03-30T03:41:09.440Z,5.63
2023-03-30T03:43:37.752Z,7.18
2023-03-30T03:46:05.636Z,8.10
2023-03-30T03:48:50.264Z,8.63
2023-03-30T03:51:18.023Z,6.17
2023-03-30T03:53:47.107Z,12.95
2023-03-30T03:56:15.476Z,5.72
2023-03-30T03:58:43.153Z,3.90
2023-03-30T04:01:14.446Z,7.47
2023-03-30T04:03:42.649Z,7.07
2023-03-30T04:06:11.859Z,6.03
2023-03-30T04:08:39.574Z,5.68
2023-03-30T04:13:50.671Z,11.23
2023-03-30T04:16:18.614Z,7.15
2023-03-30T04:18:46.307Z,8.15
2023-03-30T04:21:17.749Z,6.35
2023-03-30T04:23:49.328Z,8.27
2023-03-30T04:26:17.705Z,5.53
2023-03-30T04:28:46.856Z,7.88
2023-03-30T04:31:14.799Z,4.30
2023-03-30T04:33:51.803Z,6.30
2023-03-30T04:36:22.119Z,10.57
2023-03-30T04:38:58.603Z,4.93
2023-03-30T04:41:33.605Z,8.20
2023-03-30T04:44:05.263Z,4.50
2023-03-30T04:46:33.517Z,6.75
2023-03-30T04:49:01.287Z,11.52
2023-03-30T04:51:31.499Z,6.45
2023-03-30T04:53:59.174Z,7.93
2023-03-30T04:56:27.891Z,7.65
2023-03-30T04:58:56.207Z,13.63
2023-03-30T05:01:24.380Z,8.43
2023-03-30T05:03:52.581Z,10.65
2023-03-30T05:06:21.696Z,7.13
2023-03-30T05:08:51.208Z,12.40
2023-03-30T05:11:18.911Z,11.77
2023-03-30T05:13:58.833Z,6.97
2023-03-30T05:16:27.055Z,5.97
2023-03-30T05:18:55.327Z,13.32
2023-03-30T05:21:23.209Z,9.73
2023-03-30T05:23:58.500Z,6.18
2023-03-30T05:26:26.757Z,7.30
2023-03-30T05:28:54.926Z,9.40
2023-03-30T05:31:22.808Z,6.70
2023-03-30T05:33:52.056Z,8.80
2023-03-30T05:36:20.086Z,6.03
2023-03-30T05:38:53.646Z,6.30
2023-03-30T05:41:23.236Z,6.20
2023-03-30T05:43:52.474Z,6.05
2023-03-30T05:46:20.419Z,7.55
2023-03-30T05:48:48.226Z,11.40
2023-03-30T05:51:15.956Z,6.73
2023-03-30T05:53:45.197Z,10.73
2023-03-30T05:56:13.091Z,3.85
2023-03-30T05:58:42.349Z,7.10
2023-03-30T06:01:12.023Z,6.95
2023-03-30T06:03:40.272Z,9.18
2023-03-30T06:06:09.317Z,5.28
2023-03-30T06:08:37.239Z,6.22
2023-03-30T06:11:05.290Z,7.80
2023-03-30T06:13:33.574Z,7.40
2023-03-30T06:16:03.638Z,5.22
2023-03-30T06:18:31.624Z,3.65
2023-03-30T06:21:02.372Z,9.98
2023-03-30T06:23:30.806Z,6.90
2023-03-30T06:25:59.614Z,5.30
2023-03-30T06:28:27.444Z,8.27
2023-03-30T06:30:55.139Z,4.05
2023-03-30T06:33:25.614Z,9.45
2023-03-30T06:35:54.409Z,6.75
2023-03-30T06:38:23.725Z,6.25
2023-03-30T06:40:51.586Z,7.32
2023-03-30T06:43:21.107Z,4.40
2023-03-30T06:45:52.731Z,4.97
2023-03-30T06:48:22.481Z,4.68
2023-03-30T06:50:52.174Z,7.07
2023-03-30T06:53:20.698Z,7.65
2023-03-30T06:55:51.999Z,8.63
2023-03-30T06:58:19.868Z,6.93
2023-03-30T07:00:47.593Z,4.85
2023-03-30T07:03:17.327Z,7.60
2023-03-30T07:05:45.094Z,6.75
2023-03-30T07:08:14.464Z,7.70
2023-03-30T07:10:42.605Z,4.75
2023-03-30T07:13:10.476Z,6.13
2023-03-30T07:15:38.192Z,7.82
2023-03-30T07:18:06.010Z,7.65
2023-03-30T07:20:33.676Z,7.45
2023-03-30T07:23:01.399Z,7.28
2023-03-30T07:25:30.612Z,11.23
2023-03-30T07:27:58.308Z,5.60
2023-03-30T07:30:26.199Z,8.95
2023-03-30T07:32:56.264Z,6.03
2023-03-30T07:35:25.778Z,6.78
2023-03-30T07:38:02.009Z,2.87
2023-03-30T07:40:32.399Z,5.27
2023-03-30T07:43:00.348Z,7.45
2023-03-30T07:45:28.045Z,8.30
2023-03-30T07:47:56.301Z,4.95
2023-03-30T07:50:25.574Z,6.50
2023-03-30T07:52:53.658Z,6.05
2023-03-30T07:55:21.408Z,4.77
2023-03-30T07:57:50.615Z,6.40
2023-03-30T08:00:19.311Z,9.65
2023-03-30T08:02:46.984Z,6.63
2023-03-30T08:05:15.742Z,4.55
2023-03-30T08:07:43.525Z,7.07
2023-03-30T08:10:12.085Z,4.97
2023-03-30T08:12:39.742Z,8.15
2023-03-30T08:15:12.195Z,4.75
2023-03-30T08:17:42.441Z,8.25
2023-03-30T08:20:12.970Z,7.53
2023-03-30T08:25:58.708Z,6.43
2023-03-30T08:28:27.172Z,9.52
2023-03-30T08:30:56.338Z,7.43
2023-03-30T08:33:24.453Z,9.60
2023-03-30T08:35:52.702Z,9.05
2023-03-30T08:38:20.408Z,5.50
2023-03-30T08:40:49.290Z,1.17
2023-03-30T08:43:27.269Z,0.25
2023-03-30T08:45:56.748Z,0.20
2023-03-30T08:48:27.132Z,1.10
2023-03-30T08:50:57.674Z,0.00
2023-03-30T08:53:43.933Z,0.30
2023-03-30T08:56:18.011Z,0.00
2023-03-30T08:58:51.074Z,5.00
2023-03-30T09:01:25.252Z,0.50
2023-03-30T09:04:03.709Z,5.50
2023-03-30T09:06:41.784Z,0.10
2023-03-30T09:09:12.941Z,0.90
2023-03-30T09:11:40.955Z,0.00
2023-03-30T09:14:13.079Z,0.03
2023-03-30T09:16:47.600Z,0.00
2023-03-30T09:19:20.218Z,0.00
2023-03-30T09:21:49.069Z,1.20
2023-03-30T09:24:20.336Z,0.10
2023-03-30T09:26:53.741Z,0.20
2023-03-30T09:29:26.992Z,0.40
2023-03-30T09:32:05.822Z,2.60
2023-03-30T09:34:37.901Z,1.30
2023-03-30T09:37:07.553Z,0.00
2023-03-30T09:39:36.908Z,1.30
2023-03-30T09:42:14.696Z,8.75
2023-03-30T09:44:46.168Z,9.40
2023-03-30T09:47:23.674Z,9.38
2023-03-30T09:49:56.730Z,9.48
2023-03-30T09:52:26.526Z,10.95
2023-03-30T09:54:54.228Z,7.22
2023-03-30T09:57:27.179Z,7.05
2023-03-30T09:59:55.955Z,5.15
2023-03-30T10:02:28.095Z,6.85
2023-03-30T10:05:01.675Z,5.80
2023-03-30T10:07:44.527Z,7.80
2023-03-30T10:10:17.632Z,7.65
2023-03-30T10:12:46.262Z,6.30
2023-03-30T10:15:18.061Z,6.83
2023-03-30T10:17:51.205Z,6.35
2023-03-30T10:20:26.938Z,7.18
2023-03-30T10:22:56.034Z,4.82
2023-03-30T10:25:27.205Z,5.65
2023-03-30T10:27:57.479Z,6.75
2023-03-30T10:30:28.563Z,8.00
2023-03-30T10:33:00.702Z,3.03
2023-03-30T10:35:34.479Z,8.40
2023-03-30T10:38:03.138Z,4.90
2023-03-30T10:44:13.035Z,6.20
2023-03-30T10:46:40.998Z,9.20
2023-03-30T10:49:17.733Z,7.63
2023-03-30T10:52:10.557Z,7.35
2023-03-30T10:54:42.133Z,3.58
2023-03-30T10:57:12.514Z,6.45
2023-03-30T10:59:48.764Z,9.27
2023-03-30T11:02:26.413Z,6.68
2023-03-30T11:05:00.182Z,7.90
2023-03-30T11:07:32.750Z,10.20
2023-03-30T11:10:06.267Z,11.52
2023-03-30T11:12:36.991Z,7.30
2023-03-30T11:15:08.402Z,5.77
2023-03-30T11:17:43.718Z,4.63
2023-03-30T11:20:20.872Z,8.35
2023-03-30T11:22:50.504Z,7.13
2023-03-30T11:25:21.011Z,9.32
2023-03-30T11:27:56.199Z,10.63
2023-03-30T11:30:28.540Z,10.38
2023-03-30T11:33:18.158Z,6.25
2023-03-30T11:35:48.845Z,5.85
2023-03-30T11:38:20.206Z,15.05
2023-03-30T11:40:49.052Z,6.13
2023-03-30T11:43:17.903Z,15.97
2023-03-30T11:45:54.259Z,7.53
2023-03-30T11:48:39.728Z,6.05
2023-03-30T11:51:23.812Z,6.93
2023-03-30T11:53:55.556Z,11.13
2023-03-30T11:56:30.606Z,4.72
2023-03-30T11:59:05.936Z,5.55
2023-03-30T12:01:47.450Z,10.18
2023-03-30T12:04:42.262Z,9.82
2023-03-30T12:07:22.598Z,11.63
2023-03-30T12:09:54.825Z,13.73
2023-03-30T12:12:27.208Z,11.38
2023-03-30T12:15:01.724Z,12.50
2023-03-30T12:17:36.271Z,12.25
2023-03-30T12:20:09.363Z,6.60
2023-03-30T12:22:42.326Z,8.52
2023-03-30T12:25:18.974Z,7.82
2023-03-30T12:28:12.659Z,5.55
2023-03-30T12:30:48.512Z,8.35
2023-03-30T12:33:19.494Z,13.32
2023-03-30T12:36:34.393Z,12.40
2023-03-30T12:39:05.755Z,10.00
2023-03-30T12:42:04.504Z,13.18
2023-03-30T12:45:05.859Z,18.23
2023-03-30T12:47:58.301Z,15.65
2023-03-30T12:50:39.879Z,19.23
2023-03-30T12:53:42.718Z,13.93
2023-03-30T12:56:14.537Z,12.35
2023-03-30T12:58:58.446Z,11.03
2023-03-30T13:01:52.389Z,13.25
2023-03-30T13:04:23.250Z,7.13
2023-03-30T13:06:56.771Z,6.47
2023-03-30T13:09:34.092Z,6.07
2023-03-30T13:12:26.251Z,7.28
2023-03-30T13:15:33.239Z,10.90
2023-03-30T13:18:02.151Z,7.32
2023-03-30T13:20:33.923Z,11.02
2023-03-30T13:23:07.267Z,9.23
2023-03-30T13:25:40.243Z,13.40
2023-03-30T13:29:04.367Z,15.60
2023-03-30T13:31:42.448Z,20.15
2023-03-30T13:37:13.123Z,11.07
2023-03-30T13:39:43.911Z,9.90
2023-03-30T13:42:22.022Z,10.88
2023-03-30T13:44:57.355Z,13.82
2023-03-30T13:47:37.396Z,15.10
2023-03-30T13:50:31.529Z,17.83
2023-03-30T13:53:01.351Z,9.53
2023-03-30T13:55:33.292Z,9.88
2023-03-30T13:58:04.262Z,10.15
2023-03-30T14:00:43.979Z,9.47
2023-03-30T14:03:36.082Z,8.43
2023-03-30T14:06:07.646Z,10.73
2023-03-30T14:08:37.630Z,5.55
2023-03-30T14:11:10.094Z,11.57
2023-03-30T14:13:49.666Z,10.90
2023-03-30T14:16:23.101Z,0.10
2023-03-30T14:18:52.640Z,0.20
2023-03-30T14:21:21.989Z,0.40
2023-03-30T14:23:51.390Z,0.10
2023-03-30T14:26:20.472Z,0.00
2023-03-30T14:28:50.800Z,0.10
2023-03-30T14:31:21.504Z,0.00
2023-03-30T14:33:49.402Z,0.00
2023-03-30T14:39:04.328Z,0.10
2023-03-30T14:41:32.586Z,0.00
2023-03-30T14:44:02.969Z,1.10
2023-03-30T14:46:38.507Z,0.00
2023-03-30T14:49:06.506Z,0.00
2023-03-30T14:51:40.486Z,6.43
2023-03-30T14:54:08.754Z,8.50
2023-03-30T14:56:36.597Z,7.53
2023-03-30T14:59:04.694Z,7.70
2023-03-30T15:01:34.795Z,9.13
2023-03-30T15:04:06.596Z,7.20
2023-03-30T15:06:34.398Z,9.05
2023-03-30T15:09:03.357Z,6.90
2023-03-30T15:11:32.997Z,7.93
2023-03-30T15:14:03.998Z,7.23
2023-03-30T15:16:35.921Z,9.70
2023-03-30T15:19:07.040Z,9.35
2023-03-30T15:21:36.706Z,13.10
2023-03-30T15:24:09.011Z,10.45
2023-03-30T15:26:39.257Z,10.90
2023-03-30T15:29:07.409Z,7.72
2023-03-30T15:31:36.592Z,9.15
2023-03-30T15:34:05.360Z,7.70
2023-03-30T15:36:38.919Z,7.15
2023-03-30T15:39:20.922Z,8.70
2023-03-30T15:41:50.901Z,8.98
2023-03-30T15:44:19.930Z,9.52
2023-03-30T15:46:50.427Z,8.30
2023-03-30T15:49:20.110Z,14.35
2023-03-30T15:51:49.380Z,10.95
2023-03-30T15:54:18.363Z,8.60
2023-03-30T15:56:49.533Z,11.68
2023-03-30T15:59:19.880Z,8.80
2023-03-30T16:01:53.824Z,8.35
2023-03-30T16:04:23.785Z,12.40
2023-03-30T16:06:52.540Z,10.50
2023-03-30T16:09:20.267Z,10.15
2023-03-30T16:11:48.212Z,6.90
2023-03-30T16:14:20.014Z,11.53
2023-03-30T16:16:47.935Z,10.32
2023-03-30T16:19:18.734Z,15.20
2023-03-30T16:21:46.593Z,14.15
2023-03-30T16:24:14.353Z,9.40
2023-03-30T16:26:42.129Z,8.10
2023-03-30T16:29:16.831Z,8.60
2023-03-30T16:31:44.587Z,7.68
2023-03-30T16:34:12.487Z,4.82
2023-03-30T16:36:42.290Z,4.05
2023-03-30T16:39:17.597Z,4.35
2023-03-30T16:41:46.007Z,5.40
2023-03-30T16:44:13.812Z,1.75
2023-03-30T16:46:42.570Z,6.10
2023-03-30T16:49:14.223Z,5.13
2023-03-30T16:51:43.602Z,6.87
2023-03-30T16:54:23.072Z,6.97
2023-03-30T16:56:58.045Z,6.78
2023-03-30T16:59:27.092Z,6.37
2023-03-30T17:01:54.789Z,6.47
2023-03-30T17:04:22.685Z,8.10
2023-03-30T17:06:53.705Z,13.63
2023-03-30T17:09:22.199Z,8.93
2023-03-30T17:11:50.340Z,8.20
2023-03-30T17:14:18.212Z,8.77
2023-03-30T17:16:45.960Z,8.98
2023-03-30T17:19:14.729Z,12.03
2023-03-30T17:21:43.885Z,10.68
2023-03-30T17:24:15.181Z,15.02
2023-03-30T17:26:43.053Z,13.55
2023-03-30T17:29:11.321Z,12.02
2023-03-30T17:31:39.354Z,7.80
2023-03-30T17:34:07.783Z,11.63
2023-03-30T17:36:35.509Z,9.25
2023-03-30T17:39:05.028Z,15.20
2023-03-30T17:45:17.390Z,16.00
2023-03-30T17:47:45.696Z,10.02
2023-03-30T17:50:23.122Z,8.53
2023-03-30T17:52:51.717Z,12.53
2023-03-30T17:55:20.502Z,12.73
2023-03-30T17:57:48.211Z,13.07
2023-03-30T18:00:24.950Z,11.48
2023-03-30T18:02:53.131Z,12.20
2023-03-30T18:05:23.386Z,12.70
2023-03-30T18:07:52.030Z,12.00
2023-03-30T18:10:23.358Z,15.90
2023-03-30T18:12:51.598Z,12.63
2023-03-30T18:15:22.632Z,16.60
2023-03-30T18:17:50.911Z,16.77
2023-03-30T18:20:21.974Z,14.00
2023-03-30T18:22:49.947Z,11.48
2023-03-30T18:25:29.390Z,12.73
2023-03-30T18:28:12.038Z,6.93
2023-03-30T18:30:41.276Z,7.93
2023-03-30T18:33:09.652Z,11.82
2023-03-30T18:35:38.334Z,8.50
2023-03-30T18:38:11.237Z,10.63
2023-03-30T18:40:41.707Z,14.98
2023-03-30T18:43:09.395Z,9.77
2023-03-30T18:45:49.634Z,11.02
2023-03-30T18:48:20.006Z,10.05
2023-03-30T18:50:48.995Z,18.25
2023-03-30T18:53:17.775Z,12.30
2023-03-30T18:55:46.644Z,11.82
2023-03-30T18:58:16.019Z,11.52
2023-03-30T19:00:43.904Z,8.63
2023-03-30T19:03:14.370Z,15.90
2023-03-30T19:05:42.947Z,13.55
2023-03-30T19:08:12.024Z,11.43
2023-03-30T19:10:41.614Z,9.52
2023-03-30T19:13:12.664Z,11.07
2023-03-30T19:15:47.152Z,11.93
2023-03-30T19:18:17.852Z,9.75
2023-03-30T19:20:46.303Z,11.55
2023-03-30T19:23:16.001Z,12.07
2023-03-30T19:25:44.838Z,8.73
2023-03-30T19:28:13.250Z,8.27
2023-03-30T19:30:41.138Z,12.35
2023-03-30T19:33:15.258Z,8.35
2023-03-30T19:35:45.806Z,11.48
2023-03-30T19:38:14.343Z,11.87
2023-03-30T19:40:42.413Z,6.47
2023-03-30T19:43:10.502Z,10.35
2023-03-30T19:45:38.461Z,9.90
2023-03-30T19:48:06.639Z,9.38
2023-03-30T19:50:34.809Z,11.73
2023-03-30T19:53:03.931Z,7.72
2023-03-30T19:55:33.618Z,11.95
2023-03-30T19:58:01.262Z,10.63
2023-03-30T20:00:31.405Z,8.43
2023-03-30T20:02:59.214Z,6.70
2023-03-30T20:05:27.935Z,6.35
2023-03-30T20:07:57.573Z,7.68
2023-03-30T20:10:27.232Z,5.70
2023-03-30T20:12:54.943Z,8.57
2023-03-30T20:15:24.897Z,5.07
2023-03-30T20:17:56.311Z,2.97
2023-03-30T20:20:25.377Z,11.93
2023-03-30T20:22:56.513Z,10.55
2023-03-30T20:25:26.172Z,7.38
2023-03-30T20:27:54.338Z,5.70
2023-03-30T20:30:22.609Z,8.02
2023-03-30T20:33:06.306Z,12.23
2023-03-30T20:35:47.727Z,10.25
2023-03-30T20:38:15.438Z,10.93
2023-03-30T20:40:48.451Z,7.75
2023-03-30T20:43:16.133Z,12.30
2023-03-30T20:45:48.413Z,11.93
2023-03-30T20:48:26.431Z,10.80
2023-03-30T20:50:55.382Z,14.50
2023-03-30T20:53:23.260Z,8.90
2023-03-30T20:55:52.314Z,12.00
2023-03-30T20:58:22.238Z,11.07
2023-03-30T21:00:51.913Z,12.32
2023-03-30T21:03:19.965Z,14.30
2023-03-30T21:05:47.889Z,6.43
2023-03-30T21:08:16.673Z,10.10
2023-03-30T21:10:45.050Z,9.30
2023-03-30T21:13:15.100Z,9.95
2023-03-30T21:15:42.744Z,10.68
2023-03-30T21:18:10.442Z,7.45
2023-03-30T21:20:38.277Z,9.80
2023-03-30T21:23:06.261Z,13.90
2023-03-30T21:25:33.892Z,13.38
2023-03-30T21:28:01.540Z,9.77
2023-03-30T21:30:33.254Z,10.48
2023-03-30T21:33:01.345Z,13.90
2023-03-30T21:35:50.595Z,11.52
2023-03-30T21:38:19.061Z,14.20
2023-03-30T21:41:00.803Z,12.27
2023-03-30T21:43:30.377Z,11.60
2023-03-30T21:46:00.798Z,15.10
2023-03-30T21:48:30.011Z,11.02
2023-03-30T21:51:02.008Z,11.30
2023-03-30T21:53:30.604Z,13.00
2023-03-30T21:55:58.512Z,10.55
2023-03-30T21:58:27.934Z,12.48
2023-03-30T22:01:08.860Z,12.68
2023-03-30T22:03:41.276Z,13.43
2023-03-30T22:06:10.937Z,7.97
2023-03-30T22:08:41.517Z,10.40
2023-03-30T22:11:11.788Z,11.30
2023-03-30T22:13:39.610Z,9.75
2023-03-30T22:16:09.417Z,11.63
2023-03-30T22:18:37.405Z,15.40
2023-03-30T22:21:08.290Z,13.40
2023-03-30T22:23:36.153Z,10.07
2023-03-30T22:26:04.455Z,13.68
2023-03-30T22:28:32.312Z,10.73
2023-03-30T22:31:00.011Z,10.48
2023-03-30T22:33:28.888Z,16.30
2023-03-30T22:35:57.191Z,14.80
2023-03-30T22:38:26.586Z,11.30
2023-03-30T22:41:04.628Z,9.57
2023-03-30T22:43:34.398Z,12.00
2023-03-30T22:46:02.557Z,14.13
2023-03-30T22:48:30.358Z,13.25
2023-03-30T22:51:02.187Z,10.45
2023-03-30T22:53:31.801Z,9.38
2023-03-30T22:55:59.610Z,10.15
2023-03-30T22:58:27.331Z,11.20
2023-03-30T23:01:00.929Z,11.07
2023-03-30T23:03:28.833Z,9.10
2023-03-30T23:06:00.981Z,9.00
2023-03-30T23:08:29.512Z,9.73
2023-03-30T23:11:04.298Z,9.07
2023-03-30T23:13:32.661Z,8.98
2023-03-30T23:16:01.553Z,12.13
2023-03-30T23:18:29.316Z,8.18
2023-03-30T23:20:58.019Z,10.77
2023-03-30T23:23:25.964Z,12.65
2023-03-30T23:25:54.103Z,9.15
2023-03-30T23:28:23.180Z,9.43
2023-03-30T23:30:51.259Z,12.60
2023-03-30T23:33:18.935Z,9.80
2023-03-30T23:35:49.508Z,11.88
2023-03-30T23:38:17.207Z,10.00
2023-03-30T23:40:45.493Z,12.35
2023-03-30T23:43:13.122Z,13.43
2023-03-30T23:45:43.164Z,16.52
2023-03-30T23:48:10.798Z,8.07
2023-03-30T23:50:38.460Z,12.15
2023-03-30T23:53:07.017Z,9.30
2023-03-30T23:55:34.746Z,12.50
2023-03-30T23:58:04.941Z,16.52
